sensor_id;sensor_type;location;lat;lon;timestamp;temperature;humidity
51637;DHT22;37713;53.254;6.460;2022-08-19T00:02:23;14.50;99.90
51637;DHT22;37713;53.254;6.460;2022-08-19T00:04:49;14.60;99.90
51637;DHT22;37713;53.254;6.460;2022-08-19T00:07:18;14.50;99.90
51637;DHT22;37713;53.254;6.460;2022-08-19T00:09:43;14.50;99.90
51637;DHT22;37713;53.254;6.460;2022-08-19T00:12:09;14.50;99.90
51637;DHT22;37713;53.254;6.460;2022-08-19T00:14:36;14.40;99.90
51637;DHT22;37713;53.254;6.460;2022-08-19T00:17:02;14.50;99.90
51637;DHT22;37713;53.254;6.460;2022-08-19T00:19:28;14.40;99.90
51637;DHT22;37713;53.254;6.460;2022-08-19T00:21:54;14.40;99.90
51637;DHT22;37713;53.254;6.460;2022-08-19T00:24:21;14.50;99.90
51637;DHT22;37713;53.254;6.460;2022-08-19T00:26:48;14.40;99.90
51637;DHT22;37713;53.254;6.460;2022-08-19T00:29:15;14.40;99.90
51637;DHT22;37713;53.254;6.460;2022-08-19T00:31:41;14.30;99.90
51637;DHT22;37713;53.254;6.460;2022-08-19T00:34:08;14.30;99.90
51637;DHT22;37713;53.254;6.460;2022-08-19T00:36:34;14.30;99.90
51637;DHT22;37713;53.254;6.460;2022-08-19T00:39:00;14.30;99.90
51637;DHT22;37713;53.254;6.460;2022-08-19T00:41:25;14.30;99.90
51637;DHT22;37713;53.254;6.460;2022-08-19T00:43:58;14.20;99.90
51637;DHT22;37713;53.254;6.460;2022-08-19T00:46:24;14.10;99.90
51637;DHT22;37713;53.254;6.460;2022-08-19T00:48:50;14.20;99.90
51637;DHT22;37713;53.254;6.460;2022-08-19T00:51:16;14.00;99.90
51637;DHT22;37713;53.254;6.460;2022-08-19T00:53:41;14.00;99.90
51637;DHT22;37713;53.254;6.460;2022-08-19T00:56:07;14.00;99.90
51637;DHT22;37713;53.254;6.460;2022-08-19T00:58:34;14.10;99.90
51637;DHT22;37713;53.254;6.460;2022-08-19T01:01:01;14.00;99.90
51637;DHT22;37713;53.254;6.460;2022-08-19T01:03:26;14.20;99.90
51637;DHT22;37713;53.254;6.460;2022-08-19T01:05:52;14.10;99.90
51637;DHT22;37713;53.254;6.460;2022-08-19T01:08:19;14.00;99.90
51637;DHT22;37713;53.254;6.460;2022-08-19T01:10:47;14.00;99.90
51637;DHT22;37713;53.254;6.460;2022-08-19T01:13:14;14.10;99.90
51637;DHT22;37713;53.254;6.460;2022-08-19T01:15:41;14.10;99.90
51637;DHT22;37713;53.254;6.460;2022-08-19T01:18:10;14.00;99.90
51637;DHT22;37713;53.254;6.460;2022-08-19T01:20:36;13.90;99.90
51637;DHT22;37713;53.254;6.460;2022-08-19T01:23:02;13.90;99.90
51637;DHT22;37713;53.254;6.460;2022-08-19T01:25:32;14.00;99.90
51637;DHT22;37713;53.254;6.460;2022-08-19T01:27:58;14.00;99.90
51637;DHT22;37713;53.254;6.460;2022-08-19T01:30:26;14.00;99.90
51637;DHT22;37713;53.254;6.460;2022-08-19T01:32:52;14.00;99.90
51637;DHT22;37713;53.254;6.460;2022-08-19T01:35:18;14.00;99.90
51637;DHT22;37713;53.254;6.460;2022-08-19T01:37:50;14.00;99.90
51637;DHT22;37713;53.254;6.460;2022-08-19T01:40:17;13.90;99.90
51637;DHT22;37713;53.254;6.460;2022-08-19T01:42:44;13.90;99.90
51637;DHT22;37713;53.254;6.460;2022-08-19T01:45:10;13.80;99.90
51637;DHT22;37713;53.254;6.460;2022-08-19T01:47:36;13.80;99.90
51637;DHT22;37713;53.254;6.460;2022-08-19T01:50:03;13.90;99.90
51637;DHT22;37713;53.254;6.460;2022-08-19T01:52:28;13.80;99.90
51637;DHT22;37713;53.254;6.460;2022-08-19T01:54:54;13.80;99.90
51637;DHT22;37713;53.254;6.460;2022-08-19T01:57:20;13.90;99.90
51637;DHT22;37713;53.254;6.460;2022-08-19T01:59:45;13.80;99.90
51637;DHT22;37713;53.254;6.460;2022-08-19T02:02:11;13.70;99.90
51637;DHT22;37713;53.254;6.460;2022-08-19T02:04:37;13.80;99.90
51637;DHT22;37713;53.254;6.460;2022-08-19T02:07:03;13.70;99.90
51637;DHT22;37713;53.254;6.460;2022-08-19T02:09:30;13.70;99.90
51637;DHT22;37713;53.254;6.460;2022-08-19T02:11:56;13.80;99.90
51637;DHT22;37713;53.254;6.460;2022-08-19T02:14:22;13.80;99.90
51637;DHT22;37713;53.254;6.460;2022-08-19T02:16:48;13.70;99.90
51637;DHT22;37713;53.254;6.460;2022-08-19T02:19:13;13.80;99.90
51637;DHT22;37713;53.254;6.460;2022-08-19T02:21:39;13.70;99.90
51637;DHT22;37713;53.254;6.460;2022-08-19T02:24:04;13.70;99.90
51637;DHT22;37713;53.254;6.460;2022-08-19T02:26:31;13.70;99.90
51637;DHT22;37713;53.254;6.460;2022-08-19T02:28:57;13.60;99.90
51637;DHT22;37713;53.254;6.460;2022-08-19T02:31:23;13.70;99.90
51637;DHT22;37713;53.254;6.460;2022-08-19T02:33:49;13.60;99.90
51637;DHT22;37713;53.254;6.460;2022-08-19T02:36:16;13.60;99.90
51637;DHT22;37713;53.254;6.460;2022-08-19T02:38:42;13.50;99.90
51637;DHT22;37713;53.254;6.460;2022-08-19T02:41:11;13.60;99.90
51637;DHT22;37713;53.254;6.460;2022-08-19T02:43:37;13.60;99.90
51637;DHT22;37713;53.254;6.460;2022-08-19T02:46:17;13.50;99.90
51637;DHT22;37713;53.254;6.460;2022-08-19T02:48:49;13.60;99.90
51637;DHT22;37713;53.254;6.460;2022-08-19T02:51:16;13.60;99.90
51637;DHT22;37713;53.254;6.460;2022-08-19T02:53:42;13.60;99.90
51637;DHT22;37713;53.254;6.460;2022-08-19T02:56:08;13.50;99.90
51637;DHT22;37713;53.254;6.460;2022-08-19T02:58:34;13.50;99.90
51637;DHT22;37713;53.254;6.460;2022-08-19T03:00:59;13.60;99.90
51637;DHT22;37713;53.254;6.460;2022-08-19T03:03:25;13.50;99.90
51637;DHT22;37713;53.254;6.460;2022-08-19T03:05:51;13.70;99.90
51637;DHT22;37713;53.254;6.460;2022-08-19T03:08:17;13.60;99.90
51637;DHT22;37713;53.254;6.460;2022-08-19T03:10:44;13.60;99.90
51637;DHT22;37713;53.254;6.460;2022-08-19T03:13:14;13.60;99.90
51637;DHT22;37713;53.254;6.460;2022-08-19T03:15:41;13.70;99.90
51637;DHT22;37713;53.254;6.460;2022-08-19T03:18:07;13.70;99.90
51637;DHT22;37713;53.254;6.460;2022-08-19T03:20:33;13.60;99.90
51637;DHT22;37713;53.254;6.460;2022-08-19T03:22:59;13.70;99.90
51637;DHT22;37713;53.254;6.460;2022-08-19T03:25:24;13.60;99.90
51637;DHT22;37713;53.254;6.460;2022-08-19T03:27:50;13.70;99.90
51637;DHT22;37713;53.254;6.460;2022-08-19T03:30:15;13.70;99.90
51637;DHT22;37713;53.254;6.460;2022-08-19T03:32:41;13.70;99.90
51637;DHT22;37713;53.254;6.460;2022-08-19T03:35:07;13.60;99.90
51637;DHT22;37713;53.254;6.460;2022-08-19T03:37:32;13.70;99.90
51637;DHT22;37713;53.254;6.460;2022-08-19T03:39:58;13.60;99.90
51637;DHT22;37713;53.254;6.460;2022-08-19T03:42:24;13.60;99.90
51637;DHT22;37713;53.254;6.460;2022-08-19T03:44:52;13.60;99.90
51637;DHT22;37713;53.254;6.460;2022-08-19T03:47:18;13.70;99.90
51637;DHT22;37713;53.254;6.460;2022-08-19T03:49:43;13.70;99.90
51637;DHT22;37713;53.254;6.460;2022-08-19T03:52:09;13.70;99.90
51637;DHT22;37713;53.254;6.460;2022-08-19T03:54:35;13.60;99.90
51637;DHT22;37713;53.254;6.460;2022-08-19T03:57:02;13.50;99.90
51637;DHT22;37713;53.254;6.460;2022-08-19T03:59:29;13.60;99.90
51637;DHT22;37713;53.254;6.460;2022-08-19T04:01:56;13.60;99.90
51637;DHT22;37713;53.254;6.460;2022-08-19T04:04:22;13.60;99.90
51637;DHT22;37713;53.254;6.460;2022-08-19T04:06:48;13.60;99.90
51637;DHT22;37713;53.254;6.460;2022-08-19T04:09:15;13.60;99.90
51637;DHT22;37713;53.254;6.460;2022-08-19T04:11:46;13.50;99.90
51637;DHT22;37713;53.254;6.460;2022-08-19T04:14:12;13.60;99.90
51637;DHT22;37713;53.254;6.460;2022-08-19T04:16:39;13.60;99.90
51637;DHT22;37713;53.254;6.460;2022-08-19T04:19:05;13.60;99.90
51637;DHT22;37713;53.254;6.460;2022-08-19T04:21:32;13.60;99.90
51637;DHT22;37713;53.254;6.460;2022-08-19T04:23:58;13.60;99.90
51637;DHT22;37713;53.254;6.460;2022-08-19T04:26:25;13.70;99.90
51637;DHT22;37713;53.254;6.460;2022-08-19T04:28:51;13.50;99.90
51637;DHT22;37713;53.254;6.460;2022-08-19T04:31:20;13.60;99.90
51637;DHT22;37713;53.254;6.460;2022-08-19T04:33:46;13.60;99.90
51637;DHT22;37713;53.254;6.460;2022-08-19T04:36:16;13.60;99.90
51637;DHT22;37713;53.254;6.460;2022-08-19T04:38:42;13.60;99.90
51637;DHT22;37713;53.254;6.460;2022-08-19T04:41:08;13.60;99.90
51637;DHT22;37713;53.254;6.460;2022-08-19T04:43:52;13.50;99.90
51637;DHT22;37713;53.254;6.460;2022-08-19T04:46:20;13.60;99.90
51637;DHT22;37713;53.254;6.460;2022-08-19T04:48:46;13.50;99.90
51637;DHT22;37713;53.254;6.460;2022-08-19T04:51:12;13.70;99.90
51637;DHT22;37713;53.254;6.460;2022-08-19T04:53:39;13.60;99.90
51637;DHT22;37713;53.254;6.460;2022-08-19T04:56:07;13.60;99.90
51637;DHT22;37713;53.254;6.460;2022-08-19T04:58:33;13.70;99.90
51637;DHT22;37713;53.254;6.460;2022-08-19T05:00:59;13.80;99.90
51637;DHT22;37713;53.254;6.460;2022-08-19T05:03:25;13.70;99.90
51637;DHT22;37713;53.254;6.460;2022-08-19T05:05:51;13.70;99.90
51637;DHT22;37713;53.254;6.460;2022-08-19T05:08:17;13.90;99.90
51637;DHT22;37713;53.254;6.460;2022-08-19T05:10:47;13.80;99.90
51637;DHT22;37713;53.254;6.460;2022-08-19T05:13:14;13.90;99.90
51637;DHT22;37713;53.254;6.460;2022-08-19T05:15:40;13.90;99.90
51637;DHT22;37713;53.254;6.460;2022-08-19T05:18:06;13.90;99.90
51637;DHT22;37713;53.254;6.460;2022-08-19T05:20:50;14.00;99.90
51637;DHT22;37713;53.254;6.460;2022-08-19T05:23:34;14.00;99.90
51637;DHT22;37713;53.254;6.460;2022-08-19T05:26:00;14.00;99.90
51637;DHT22;37713;53.254;6.460;2022-08-19T05:28:26;14.00;99.90
51637;DHT22;37713;53.254;6.460;2022-08-19T05:30:53;14.00;99.90
51637;DHT22;37713;53.254;6.460;2022-08-19T05:33:21;14.20;99.90
51637;DHT22;37713;53.254;6.460;2022-08-19T05:35:47;14.10;99.90
51637;DHT22;37713;53.254;6.460;2022-08-19T05:38:15;14.20;99.90
51637;DHT22;37713;53.254;6.460;2022-08-19T05:40:43;14.30;99.90
51637;DHT22;37713;53.254;6.460;2022-08-19T05:43:12;14.40;99.90
51637;DHT22;37713;53.254;6.460;2022-08-19T05:45:41;14.50;99.90
51637;DHT22;37713;53.254;6.460;2022-08-19T05:48:07;14.40;99.90
51637;DHT22;37713;53.254;6.460;2022-08-19T05:50:36;14.40;99.90
51637;DHT22;37713;53.254;6.460;2022-08-19T05:53:02;14.50;99.90
51637;DHT22;37713;53.254;6.460;2022-08-19T05:55:28;14.50;99.90
51637;DHT22;37713;53.254;6.460;2022-08-19T05:57:54;14.70;99.90
51637;DHT22;37713;53.254;6.460;2022-08-19T06:00:19;14.60;99.90
51637;DHT22;37713;53.254;6.460;2022-08-19T06:02:45;14.70;99.90
51637;DHT22;37713;53.254;6.460;2022-08-19T06:05:11;14.90;99.90
51637;DHT22;37713;53.254;6.460;2022-08-19T06:07:37;14.90;99.90
51637;DHT22;37713;53.254;6.460;2022-08-19T06:10:04;15.10;99.90
51637;DHT22;37713;53.254;6.460;2022-08-19T06:12:30;15.10;99.90
51637;DHT22;37713;53.254;6.460;2022-08-19T06:15:01;15.10;99.90
51637;DHT22;37713;53.254;6.460;2022-08-19T06:17:28;15.30;99.90
51637;DHT22;37713;53.254;6.460;2022-08-19T06:19:55;15.50;99.90
51637;DHT22;37713;53.254;6.460;2022-08-19T06:22:21;15.60;99.90
51637;DHT22;37713;53.254;6.460;2022-08-19T06:24:46;15.60;99.90
51637;DHT22;37713;53.254;6.460;2022-08-19T06:27:12;15.80;99.90
51637;DHT22;37713;53.254;6.460;2022-08-19T06:29:37;15.90;99.90
51637;DHT22;37713;53.254;6.460;2022-08-19T06:32:03;16.00;99.90
51637;DHT22;37713;53.254;6.460;2022-08-19T06:34:30;16.20;99.90
51637;DHT22;37713;53.254;6.460;2022-08-19T06:36:56;17.20;99.90
51637;DHT22;37713;53.254;6.460;2022-08-19T06:39:25;18.40;99.90
51637;DHT22;37713;53.254;6.460;2022-08-19T06:41:52;19.60;99.90
51637;DHT22;37713;53.254;6.460;2022-08-19T06:44:18;20.50;99.90
51637;DHT22;37713;53.254;6.460;2022-08-19T06:46:45;21.40;99.90
51637;DHT22;37713;53.254;6.460;2022-08-19T06:49:10;22.00;99.90
51637;DHT22;37713;53.254;6.460;2022-08-19T06:51:42;22.50;99.90
51637;DHT22;37713;53.254;6.460;2022-08-19T06:54:09;23.10;99.90
51637;DHT22;37713;53.254;6.460;2022-08-19T06:56:35;23.60;99.90
51637;DHT22;37713;53.254;6.460;2022-08-19T06:59:02;23.80;99.90
51637;DHT22;37713;53.254;6.460;2022-08-19T07:01:28;24.00;99.90
51637;DHT22;37713;53.254;6.460;2022-08-19T07:03:54;24.40;99.90
51637;DHT22;37713;53.254;6.460;2022-08-19T07:06:20;24.60;99.90
51637;DHT22;37713;53.254;6.460;2022-08-19T07:08:47;24.90;99.90
51637;DHT22;37713;53.254;6.460;2022-08-19T07:11:14;25.00;99.90
51637;DHT22;37713;53.254;6.460;2022-08-19T07:13:40;25.20;99.90
51637;DHT22;37713;53.254;6.460;2022-08-19T07:16:11;25.40;99.90
51637;DHT22;37713;53.254;6.460;2022-08-19T07:18:37;25.60;99.90
51637;DHT22;37713;53.254;6.460;2022-08-19T07:21:04;25.60;99.90
51637;DHT22;37713;53.254;6.460;2022-08-19T07:23:30;25.70;99.90
51637;DHT22;37713;53.254;6.460;2022-08-19T07:25:56;25.70;99.90
51637;DHT22;37713;53.254;6.460;2022-08-19T07:28:22;25.60;99.90
51637;DHT22;37713;53.254;6.460;2022-08-19T07:30:48;25.70;99.90
51637;DHT22;37713;53.254;6.460;2022-08-19T07:33:15;25.70;99.90
51637;DHT22;37713;53.254;6.460;2022-08-19T07:35:41;25.80;99.90
51637;DHT22;37713;53.254;6.460;2022-08-19T07:38:07;25.90;99.90
51637;DHT22;37713;53.254;6.460;2022-08-19T07:40:33;25.90;99.90
51637;DHT22;37713;53.254;6.460;2022-08-19T07:42:58;25.90;99.90
51637;DHT22;37713;53.254;6.460;2022-08-19T07:45:24;26.10;99.90
51637;DHT22;37713;53.254;6.460;2022-08-19T07:47:50;26.10;99.90
51637;DHT22;37713;53.254;6.460;2022-08-19T07:50:16;26.10;99.90
51637;DHT22;37713;53.254;6.460;2022-08-19T07:52:43;26.10;99.90
51637;DHT22;37713;53.254;6.460;2022-08-19T07:55:09;26.00;99.90
51637;DHT22;37713;53.254;6.460;2022-08-19T07:57:35;25.70;99.90
51637;DHT22;37713;53.254;6.460;2022-08-19T08:00:01;25.50;99.90
51637;DHT22;37713;53.254;6.460;2022-08-19T08:02:27;25.40;99.90
51637;DHT22;37713;53.254;6.460;2022-08-19T08:04:52;25.30;99.90
51637;DHT22;37713;53.254;6.460;2022-08-19T08:07:37;25.00;99.90
51637;DHT22;37713;53.254;6.460;2022-08-19T08:10:21;24.80;99.90
51637;DHT22;37713;53.254;6.460;2022-08-19T08:12:47;24.60;99.90
51637;DHT22;37713;53.254;6.460;2022-08-19T08:15:14;24.30;99.90
51637;DHT22;37713;53.254;6.460;2022-08-19T08:17:43;24.20;99.90
51637;DHT22;37713;53.254;6.460;2022-08-19T08:20:09;24.00;99.90
51637;DHT22;37713;53.254;6.460;2022-08-19T08:22:35;23.90;99.90
51637;DHT22;37713;53.254;6.460;2022-08-19T08:25:21;23.80;99.90
51637;DHT22;37713;53.254;6.460;2022-08-19T08:27:48;24.00;99.90
51637;DHT22;37713;53.254;6.460;2022-08-19T08:30:19;23.90;99.90
51637;DHT22;37713;53.254;6.460;2022-08-19T08:32:45;24.00;99.90
51637;DHT22;37713;53.254;6.460;2022-08-19T08:35:14;24.00;99.90
51637;DHT22;37713;53.254;6.460;2022-08-19T08:37:42;24.00;99.90
51637;DHT22;37713;53.254;6.460;2022-08-19T08:42:38;24.20;99.90
51637;DHT22;37713;53.254;6.460;2022-08-19T08:45:13;24.30;99.90
51637;DHT22;37713;53.254;6.460;2022-08-19T08:47:41;24.20;99.90
51637;DHT22;37713;53.254;6.460;2022-08-19T08:50:10;24.30;99.90
51637;DHT22;37713;53.254;6.460;2022-08-19T08:52:41;24.30;99.90
51637;DHT22;37713;53.254;6.460;2022-08-19T08:55:09;24.30;99.90
51637;DHT22;37713;53.254;6.460;2022-08-19T08:57:37;24.40;99.90
51637;DHT22;37713;53.254;6.460;2022-08-19T09:00:05;24.40;99.90
51637;DHT22;37713;53.254;6.460;2022-08-19T09:02:31;24.40;99.90
51637;DHT22;37713;53.254;6.460;2022-08-19T09:04:57;24.50;99.90
51637;DHT22;37713;53.254;6.460;2022-08-19T09:09:57;24.60;99.90
51637;DHT22;37713;53.254;6.460;2022-08-19T09:12:31;24.70;99.90
51637;DHT22;37713;53.254;6.460;2022-08-19T09:15:03;24.70;99.90
51637;DHT22;37713;53.254;6.460;2022-08-19T09:17:30;24.70;99.90
51637;DHT22;37713;53.254;6.460;2022-08-19T09:20:00;24.80;99.90
51637;DHT22;37713;53.254;6.460;2022-08-19T09:22:31;24.70;99.90
51637;DHT22;37713;53.254;6.460;2022-08-19T09:24:57;24.90;99.90
51637;DHT22;37713;53.254;6.460;2022-08-19T09:27:23;24.90;99.90
51637;DHT22;37713;53.254;6.460;2022-08-19T09:29:49;24.90;99.90
51637;DHT22;37713;53.254;6.460;2022-08-19T09:32:15;24.90;99.90
51637;DHT22;37713;53.254;6.460;2022-08-19T09:34:42;25.00;99.90
51637;DHT22;37713;53.254;6.460;2022-08-19T09:37:08;25.00;99.90
51637;DHT22;37713;53.254;6.460;2022-08-19T09:39:34;24.90;99.90
51637;DHT22;37713;53.254;6.460;2022-08-19T09:42:00;24.90;99.90
51637;DHT22;37713;53.254;6.460;2022-08-19T09:44:25;25.00;99.90
51637;DHT22;37713;53.254;6.460;2022-08-19T09:46:51;25.00;99.90
51637;DHT22;37713;53.254;6.460;2022-08-19T09:49:20;24.90;99.90
51637;DHT22;37713;53.254;6.460;2022-08-19T09:51:53;25.00;99.90
51637;DHT22;37713;53.254;6.460;2022-08-19T09:54:22;24.90;99.90
51637;DHT22;37713;53.254;6.460;2022-08-19T09:56:48;24.90;99.90
51637;DHT22;37713;53.254;6.460;2022-08-19T09:59:13;25.00;99.90
51637;DHT22;37713;53.254;6.460;2022-08-19T10:01:39;25.00;99.90
51637;DHT22;37713;53.254;6.460;2022-08-19T10:04:05;25.10;99.90
51637;DHT22;37713;53.254;6.460;2022-08-19T10:06:34;25.10;99.90
51637;DHT22;37713;53.254;6.460;2022-08-19T10:09:00;25.20;99.90
51637;DHT22;37713;53.254;6.460;2022-08-19T10:11:26;25.20;99.90
51637;DHT22;37713;53.254;6.460;2022-08-19T10:13:52;25.30;99.90
51637;DHT22;37713;53.254;6.460;2022-08-19T10:16:21;25.30;99.90
51637;DHT22;37713;53.254;6.460;2022-08-19T10:18:48;25.40;99.90
51637;DHT22;37713;53.254;6.460;2022-08-19T10:21:15;25.50;99.90
51637;DHT22;37713;53.254;6.460;2022-08-19T10:23:43;25.40;99.90
51637;DHT22;37713;53.254;6.460;2022-08-19T10:26:13;25.60;99.90
51637;DHT22;37713;53.254;6.460;2022-08-19T10:28:39;25.70;99.90
51637;DHT22;37713;53.254;6.460;2022-08-19T10:31:15;25.80;99.90
51637;DHT22;37713;53.254;6.460;2022-08-19T10:33:42;25.90;99.90
51637;DHT22;37713;53.254;6.460;2022-08-19T10:36:09;26.00;99.90
51637;DHT22;37713;53.254;6.460;2022-08-19T10:38:36;26.10;99.90
51637;DHT22;37713;53.254;6.460;2022-08-19T10:41:09;26.10;99.90
51637;DHT22;37713;53.254;6.460;2022-08-19T10:43:35;26.20;99.90
51637;DHT22;37713;53.254;6.460;2022-08-19T10:46:08;26.30;99.90
51637;DHT22;37713;53.254;6.460;2022-08-19T10:48:34;26.30;99.90
51637;DHT22;37713;53.254;6.460;2022-08-19T10:51:00;26.30;99.90
51637;DHT22;37713;53.254;6.460;2022-08-19T10:53:52;26.30;99.90
51637;DHT22;37713;53.254;6.460;2022-08-19T10:56:18;26.40;99.90
51637;DHT22;37713;53.254;6.460;2022-08-19T10:59:02;26.40;99.90
51637;DHT22;37713;53.254;6.460;2022-08-19T11:01:29;26.40;99.90
51637;DHT22;37713;53.254;6.460;2022-08-19T11:03:56;26.30;99.90
51637;DHT22;37713;53.254;6.460;2022-08-19T11:06:23;26.30;99.90
51637;DHT22;37713;53.254;6.460;2022-08-19T11:08:50;26.40;99.90
51637;DHT22;37713;53.254;6.460;2022-08-19T11:11:16;26.40;99.90
51637;DHT22;37713;53.254;6.460;2022-08-19T11:13:42;26.50;99.90
51637;DHT22;37713;53.254;6.460;2022-08-19T11:16:13;26.60;99.90
51637;DHT22;37713;53.254;6.460;2022-08-19T11:18:50;26.70;99.90
51637;DHT22;37713;53.254;6.460;2022-08-19T11:21:18;26.70;99.90
51637;DHT22;37713;53.254;6.460;2022-08-19T11:23:45;26.90;99.90
51637;DHT22;37713;53.254;6.460;2022-08-19T11:26:11;27.00;99.90
51637;DHT22;37713;53.254;6.460;2022-08-19T11:28:36;27.20;99.90
51637;DHT22;37713;53.254;6.460;2022-08-19T11:31:02;27.40;99.90
51637;DHT22;37713;53.254;6.460;2022-08-19T11:33:29;27.40;99.90
51637;DHT22;37713;53.254;6.460;2022-08-19T11:35:58;27.50;99.90
51637;DHT22;37713;53.254;6.460;2022-08-19T11:38:26;27.60;99.90
51637;DHT22;37713;53.254;6.460;2022-08-19T11:40:59;27.40;99.90
51637;DHT22;37713;53.254;6.460;2022-08-19T11:43:25;27.20;99.90
51637;DHT22;37713;53.254;6.460;2022-08-19T11:45:52;27.10;99.90
51637;DHT22;37713;53.254;6.460;2022-08-19T11:48:18;27.20;99.90
51637;DHT22;37713;53.254;6.460;2022-08-19T11:50:48;27.30;99.90
51637;DHT22;37713;53.254;6.460;2022-08-19T11:53:13;27.30;99.90
51637;DHT22;37713;53.254;6.460;2022-08-19T11:55:39;27.30;99.90
51637;DHT22;37713;53.254;6.460;2022-08-19T11:58:05;27.30;99.90
51637;DHT22;37713;53.254;6.460;2022-08-19T12:00:33;27.40;99.90
51637;DHT22;37713;53.254;6.460;2022-08-19T12:02:59;27.50;99.90
51637;DHT22;37713;53.254;6.460;2022-08-19T12:05:25;27.50;99.90
51637;DHT22;37713;53.254;6.460;2022-08-19T12:07:50;27.80;99.90
51637;DHT22;37713;53.254;6.460;2022-08-19T12:10:16;27.90;99.90
51637;DHT22;37713;53.254;6.460;2022-08-19T12:12:42;27.80;99.90
51637;DHT22;37713;53.254;6.460;2022-08-19T12:15:11;27.70;99.90
51637;DHT22;37713;53.254;6.460;2022-08-19T12:17:37;27.60;99.90
51637;DHT22;37713;53.254;6.460;2022-08-19T12:20:04;27.40;99.90
51637;DHT22;37713;53.254;6.460;2022-08-19T12:22:30;27.40;99.90
51637;DHT22;37713;53.254;6.460;2022-08-19T12:24:55;27.40;99.90
51637;DHT22;37713;53.254;6.460;2022-08-19T12:27:22;27.30;99.90
51637;DHT22;37713;53.254;6.460;2022-08-19T12:29:48;27.20;99.90
51637;DHT22;37713;53.254;6.460;2022-08-19T12:32:14;27.00;99.90
51637;DHT22;37713;53.254;6.460;2022-08-19T12:34:40;27.00;99.90
51637;DHT22;37713;53.254;6.460;2022-08-19T12:37:06;27.00;99.90
51637;DHT22;37713;53.254;6.460;2022-08-19T12:39:35;26.90;99.90
51637;DHT22;37713;53.254;6.460;2022-08-19T12:42:01;26.70;99.90
51637;DHT22;37713;53.254;6.460;2022-08-19T12:44:27;26.60;99.90
51637;DHT22;37713;53.254;6.460;2022-08-19T12:46:54;26.40;99.90
51637;DHT22;37713;53.254;6.460;2022-08-19T12:49:19;26.40;99.90
51637;DHT22;37713;53.254;6.460;2022-08-19T12:51:45;26.20;99.90
51637;DHT22;37713;53.254;6.460;2022-08-19T12:54:11;26.00;99.90
51637;DHT22;37713;53.254;6.460;2022-08-19T12:56:37;25.80;99.90
51637;DHT22;37713;53.254;6.460;2022-08-19T12:59:03;25.70;99.90
51637;DHT22;37713;53.254;6.460;2022-08-19T13:01:29;25.60;99.90
51637;DHT22;37713;53.254;6.460;2022-08-19T13:03:58;25.30;99.90
51637;DHT22;37713;53.254;6.460;2022-08-19T13:06:25;25.20;99.90
51637;DHT22;37713;53.254;6.460;2022-08-19T13:08:50;25.10;99.90
51637;DHT22;37713;53.254;6.460;2022-08-19T13:11:17;25.10;99.90
51637;DHT22;37713;53.254;6.460;2022-08-19T13:13:44;25.00;99.90
51637;DHT22;37713;53.254;6.460;2022-08-19T13:16:10;25.00;99.90
51637;DHT22;37713;53.254;6.460;2022-08-19T13:18:37;24.90;99.90
51637;DHT22;37713;53.254;6.460;2022-08-19T13:21:04;25.00;99.90
51637;DHT22;37713;53.254;6.460;2022-08-19T13:23:30;24.90;99.90
51637;DHT22;37713;53.254;6.460;2022-08-19T13:25:57;24.90;99.90
51637;DHT22;37713;53.254;6.460;2022-08-19T13:28:23;24.80;99.90
51637;DHT22;37713;53.254;6.460;2022-08-19T13:30:48;24.70;99.90
51637;DHT22;37713;53.254;6.460;2022-08-19T13:33:33;24.60;99.90
51637;DHT22;37713;53.254;6.460;2022-08-19T13:35:59;24.40;99.90
51637;DHT22;37713;53.254;6.460;2022-08-19T13:38:26;24.30;99.90
51637;DHT22;37713;53.254;6.460;2022-08-19T13:40:53;24.10;99.90
51637;DHT22;37713;53.254;6.460;2022-08-19T13:43:19;24.10;99.90
51637;DHT22;37713;53.254;6.460;2022-08-19T13:45:47;24.00;99.90
51637;DHT22;37713;53.254;6.460;2022-08-19T13:48:13;24.00;99.90
51637;DHT22;37713;53.254;6.460;2022-08-19T13:50:43;24.10;99.90
51637;DHT22;37713;53.254;6.460;2022-08-19T13:53:10;24.10;99.90
51637;DHT22;37713;53.254;6.460;2022-08-19T13:55:42;24.20;99.90
51637;DHT22;37713;53.254;6.460;2022-08-19T13:58:09;24.30;99.90
51637;DHT22;37713;53.254;6.460;2022-08-19T14:00:37;24.40;99.90
51637;DHT22;37713;53.254;6.460;2022-08-19T14:03:03;24.50;99.90
51637;DHT22;37713;53.254;6.460;2022-08-19T14:05:29;24.60;99.90
51637;DHT22;37713;53.254;6.460;2022-08-19T14:07:55;24.70;99.90
51637;DHT22;37713;53.254;6.460;2022-08-19T14:10:22;24.70;99.90
51637;DHT22;37713;53.254;6.460;2022-08-19T14:12:49;24.70;99.90
51637;DHT22;37713;53.254;6.460;2022-08-19T14:15:14;24.70;99.90
51637;DHT22;37713;53.254;6.460;2022-08-19T14:17:41;24.60;99.90
51637;DHT22;37713;53.254;6.460;2022-08-19T14:20:08;24.70;99.90
51637;DHT22;37713;53.254;6.460;2022-08-19T14:22:38;24.80;99.90
51637;DHT22;37713;53.254;6.460;2022-08-19T14:25:04;25.00;99.90
51637;DHT22;37713;53.254;6.460;2022-08-19T14:27:33;25.10;99.90
51637;DHT22;37713;53.254;6.460;2022-08-19T14:29:58;25.20;99.90
51637;DHT22;37713;53.254;6.460;2022-08-19T14:32:24;25.20;99.90
51637;DHT22;37713;53.254;6.460;2022-08-19T14:34:52;25.30;99.90
51637;DHT22;37713;53.254;6.460;2022-08-19T14:37:18;25.30;99.90
51637;DHT22;37713;53.254;6.460;2022-08-19T14:39:44;25.30;99.90
51637;DHT22;37713;53.254;6.460;2022-08-19T14:42:11;25.30;99.90
51637;DHT22;37713;53.254;6.460;2022-08-19T14:44:36;25.20;99.90
51637;DHT22;37713;53.254;6.460;2022-08-19T14:47:02;25.20;99.90
51637;DHT22;37713;53.254;6.460;2022-08-19T14:49:28;25.20;99.90
51637;DHT22;37713;53.254;6.460;2022-08-19T14:51:54;25.20;99.90
51637;DHT22;37713;53.254;6.460;2022-08-19T14:54:20;25.30;99.90
51637;DHT22;37713;53.254;6.460;2022-08-19T14:56:46;25.40;99.90
51637;DHT22;37713;53.254;6.460;2022-08-19T14:59:14;25.40;99.90
51637;DHT22;37713;53.254;6.460;2022-08-19T15:01:40;25.40;99.90
51637;DHT22;37713;53.254;6.460;2022-08-19T15:04:06;25.40;99.90
51637;DHT22;37713;53.254;6.460;2022-08-19T15:06:31;25.40;99.90
51637;DHT22;37713;53.254;6.460;2022-08-19T15:08:58;25.50;99.90
51637;DHT22;37713;53.254;6.460;2022-08-19T15:11:24;25.70;99.90
51637;DHT22;37713;53.254;6.460;2022-08-19T15:13:51;25.90;99.90
51637;DHT22;37713;53.254;6.460;2022-08-19T15:16:18;26.00;99.90
51637;DHT22;37713;53.254;6.460;2022-08-19T15:18:44;26.00;99.90
51637;DHT22;37713;53.254;6.460;2022-08-19T15:21:11;26.10;99.90
51637;DHT22;37713;53.254;6.460;2022-08-19T15:23:45;26.10;99.90
51637;DHT22;37713;53.254;6.460;2022-08-19T15:26:13;26.10;99.90
51637;DHT22;37713;53.254;6.460;2022-08-19T15:28:38;26.10;99.90
51637;DHT22;37713;53.254;6.460;2022-08-19T15:31:04;26.20;99.90
51637;DHT22;37713;53.254;6.460;2022-08-19T15:33:31;26.10;99.90
51637;DHT22;37713;53.254;6.460;2022-08-19T15:35:56;25.90;99.90